createdAt,value
2019-04-06T00:02:54.156Z,8.60
2019-04-06T00:06:58.451Z,8.70
2019-04-06T00:11:02.676Z,8.70
2019-04-06T00:15:07.295Z,8.70
2019-04-06T00:19:11.623Z,8.70
2019-04-06T00:23:15.916Z,8.70
2019-04-06T00:27:20.147Z,8.70
2019-04-06T00:31:49.482Z,8.70
2019-04-06T00:35:53.782Z,8.70
2019-04-06T00:39:58.000Z,8.80
2019-04-06T00:44:02.332Z,8.80
2019-04-06T00:48:06.622Z,8.80
2019-04-06T00:52:10.843Z,8.80
2019-04-06T00:56:15.067Z,8.80
2019-04-06T01:00:19.371Z,8.80
2019-04-06T01:04:23.690Z,8.80
2019-04-06T01:08:27.983Z,8.80
2019-04-06T01:12:32.267Z,8.80
2019-04-06T01:16:36.495Z,8.90
2019-04-06T01:20:40.792Z,8.90
2019-04-06T01:24:45.098Z,8.90
2019-04-06T01:28:49.318Z,8.90
2019-04-06T01:32:53.671Z,8.90
2019-04-06T01:36:57.854Z,8.90
2019-04-06T01:41:02.094Z,8.90
2019-04-06T01:45:06.871Z,8.90
2019-04-06T01:49:11.126Z,8.90
2019-04-06T01:53:15.351Z,8.90
2019-04-06T01:57:19.581Z,8.90
2019-04-06T02:01:43.170Z,8.90
2019-04-06T02:05:47.642Z,8.90
2019-04-06T02:09:51.864Z,8.90
2019-04-06T02:13:56.087Z,9.00
2019-04-06T02:18:00.315Z,8.90
2019-04-06T02:22:04.542Z,9.00
2019-04-06T02:26:08.769Z,9.00
2019-04-06T02:30:29.247Z,9.00
2019-04-06T02:34:58.813Z,9.00
2019-04-06T02:39:25.169Z,9.00
2019-04-06T02:43:31.918Z,9.00
2019-04-06T02:47:36.142Z,9.00
2019-04-06T02:51:40.357Z,9.00
2019-04-06T02:55:44.946Z,9.00
2019-04-06T02:59:49.124Z,9.00
2019-04-06T03:03:53.444Z,9.10
2019-04-06T03:07:57.780Z,9.10
2019-04-06T03:12:02.090Z,9.10
2019-04-06T03:16:06.332Z,9.00
2019-04-06T03:20:10.679Z,9.10
2019-04-06T03:24:14.957Z,9.10
2019-04-06T03:28:19.111Z,9.10
2019-04-06T03:32:23.375Z,9.10
2019-04-06T03:36:27.576Z,9.10
2019-04-06T03:40:31.777Z,9.10
2019-04-06T03:44:37.536Z,9.10
2019-04-06T03:48:42.024Z,9.10
2019-04-06T03:52:46.221Z,9.10
2019-04-06T03:56:50.418Z,9.10
2019-04-06T04:00:54.639Z,9.10
2019-04-06T04:04:58.872Z,9.10
2019-04-06T04:09:04.778Z,9.10
2019-04-06T04:13:09.008Z,9.10
2019-04-06T04:17:13.210Z,9.00
2019-04-06T04:21:17.430Z,9.00
2019-04-06T04:25:21.659Z,9.00
2019-04-06T04:29:25.876Z,9.00
2019-04-06T04:33:30.098Z,9.00
2019-04-06T04:37:34.397Z,9.00
2019-04-06T04:41:40.128Z,8.90
2019-04-06T04:45:44.586Z,8.90
2019-04-06T04:49:48.807Z,8.90
2019-04-06T04:53:53.114Z,8.90
2019-04-06T04:57:57.336Z,8.80
2019-04-06T05:02:01.555Z,8.80
2019-04-06T05:06:05.902Z,8.80
2019-04-06T05:10:10.127Z,8.70
2019-04-06T05:14:50.407Z,8.70
2019-04-06T05:18:54.643Z,8.60
2019-04-06T05:22:58.852Z,8.60
2019-04-06T05:27:03.188Z,8.50
2019-04-06T05:31:07.439Z,8.50
2019-04-06T05:35:11.847Z,8.50
2019-04-06T05:39:16.043Z,8.50
2019-04-06T05:43:20.283Z,8.50
2019-04-06T05:47:24.543Z,8.50
2019-04-06T05:51:28.774Z,8.50
2019-04-06T05:55:33.025Z,8.40
2019-04-06T05:59:40.306Z,8.40
2019-04-06T06:03:43.109Z,8.50
2019-04-06T06:07:47.360Z,8.50
2019-04-06T06:11:51.567Z,8.50
2019-04-06T06:15:55.832Z,8.50
2019-04-06T06:20:00.189Z,8.60
2019-04-06T06:24:04.508Z,8.60
2019-04-06T06:28:14.188Z,8.70
2019-04-06T06:32:14.691Z,8.70
2019-04-06T06:36:21.045Z,8.80
2019-04-06T06:40:25.407Z,8.90
2019-04-06T06:44:29.595Z,9.00
2019-04-06T06:48:34.065Z,9.10
2019-04-06T06:52:38.340Z,9.10
2019-04-06T06:56:42.539Z,9.20
2019-04-06T07:00:46.759Z,9.40
2019-04-06T07:04:50.984Z,9.40
2019-04-06T07:08:55.211Z,9.50
2019-04-06T07:12:59.503Z,9.70
2019-04-06T07:17:03.618Z,9.80
2019-04-06T07:21:07.999Z,9.90
2019-04-06T07:25:12.267Z,10.10
2019-04-06T07:29:16.877Z,10.20
2019-04-06T07:33:21.212Z,10.40
2019-04-06T07:37:25.581Z,10.60
2019-04-06T07:41:29.832Z,10.70
2019-04-06T07:45:34.174Z,10.90
2019-04-06T07:49:38.406Z,11.10
2019-04-06T07:53:42.627Z,11.30
2019-04-06T07:57:46.828Z,11.50
2019-04-06T08:01:51.038Z,11.80
2019-04-06T08:05:55.441Z,11.80
2019-04-06T08:09:59.890Z,12.00
2019-04-06T08:14:04.105Z,12.20
2019-04-06T08:18:08.351Z,12.40
2019-04-06T08:22:12.615Z,12.50
2019-04-06T08:26:16.860Z,12.60
2019-04-06T08:30:21.083Z,12.80
2019-04-06T08:34:25.308Z,12.90
2019-04-06T08:38:29.486Z,13.10
2019-04-06T08:42:33.729Z,13.30
2019-04-06T08:46:37.963Z,13.50
2019-04-06T08:50:42.360Z,13.70
2019-04-06T08:54:46.516Z,13.80
2019-04-06T08:58:50.714Z,14.00
2019-04-06T09:02:55.011Z,14.20
2019-04-06T09:06:59.348Z,14.30
2019-04-06T09:11:03.901Z,14.50
2019-04-06T09:15:08.419Z,14.80
2019-04-06T09:19:12.643Z,14.90
2019-04-06T09:23:16.867Z,15.20
2019-04-06T09:27:21.094Z,15.40
2019-04-06T09:31:25.314Z,15.50
2019-04-06T09:35:29.544Z,15.80
2019-04-06T09:39:33.771Z,16.00
2019-04-06T09:43:38.034Z,16.20
2019-04-06T09:48:02.385Z,16.40
2019-04-06T09:52:15.209Z,16.60
2019-04-06T09:56:26.535Z,16.80
2019-04-06T10:00:44.909Z,17.00
2019-04-06T10:05:11.166Z,17.20
2019-04-06T10:09:33.748Z,17.40
2019-04-06T10:14:03.256Z,17.60
2019-04-06T10:18:38.512Z,17.80
2019-04-06T10:22:54.615Z,18.00
2019-04-06T10:27:20.799Z,18.10
2019-04-06T10:31:44.093Z,18.30
2019-04-06T10:36:12.431Z,18.40
2019-04-06T10:40:26.870Z,18.50
2019-04-06T10:44:50.152Z,18.70
2019-04-06T10:49:19.104Z,18.90
2019-04-06T10:53:30.888Z,19.00
2019-04-06T10:57:45.859Z,19.20
2019-04-06T11:02:24.526Z,19.40
2019-04-06T11:06:44.976Z,19.50
2019-04-06T11:10:58.023Z,19.80
2019-04-06T11:15:21.319Z,19.90
2019-04-06T11:19:53.885Z,20.00
2019-04-06T11:24:16.050Z,20.20
2019-04-06T11:28:29.775Z,20.30
2019-04-06T11:32:56.063Z,20.50
2019-04-06T11:37:27.401Z,20.70
2019-04-06T11:41:45.548Z,20.90
2019-04-06T11:46:18.121Z,21.10
2019-04-06T11:50:40.299Z,21.20
2019-04-06T11:55:12.576Z,21.30
2019-04-06T11:59:38.677Z,21.50
2019-04-06T12:04:14.023Z,21.70
2019-04-06T12:08:52.907Z,21.90
2019-04-06T12:13:02.813Z,21.90
2019-04-06T12:17:19.554Z,22.10
2019-04-06T12:21:55.135Z,22.20
2019-04-06T12:26:11.119Z,22.30
2019-04-06T12:30:38.602Z,22.40
2019-04-06T12:34:58.316Z,22.50
2019-04-06T12:39:20.575Z,22.60
2019-04-06T12:43:47.054Z,22.60
2019-04-06T12:48:05.527Z,22.70
2019-04-06T12:52:24.812Z,22.70
2019-04-06T12:56:56.903Z,22.60
2019-04-06T13:01:32.646Z,22.60
2019-04-06T13:05:56.195Z,22.60
2019-04-06T13:10:17.856Z,22.60
2019-04-06T13:14:44.326Z,22.60
2019-04-06T13:19:08.064Z,22.60
2019-04-06T13:23:22.718Z,22.60
2019-04-06T13:27:41.393Z,22.50
2019-04-06T13:32:07.698Z,22.40
2019-04-06T13:36:30.972Z,22.40
2019-04-06T13:40:48.112Z,22.30
2019-04-06T13:45:14.235Z,22.40
2019-04-06T13:49:36.523Z,22.30
2019-04-06T13:53:57.037Z,22.40
2019-04-06T13:58:06.535Z,22.40
2019-04-06T14:02:32.788Z,22.40
2019-04-06T14:06:54.923Z,22.50
2019-04-06T14:11:20.983Z,22.60
2019-04-06T14:15:43.262Z,22.60
2019-04-06T14:20:18.256Z,22.70
2019-04-06T14:24:40.145Z,22.70
2019-04-06T14:29:12.662Z,22.70
2019-04-06T14:33:41.879Z,22.80
2019-04-06T14:38:14.048Z,22.90
2019-04-06T14:42:36.103Z,22.90
2019-04-06T14:46:50.868Z,23.00
2019-04-06T14:51:20.156Z,23.00
2019-04-06T14:55:49.731Z,23.00
2019-04-06T15:00:16.060Z,23.00
2019-04-06T15:04:48.838Z,23.00
2019-04-06T15:09:05.215Z,23.00
2019-04-06T15:13:25.443Z,22.90
2019-04-06T15:17:46.946Z,22.90
2019-04-06T15:22:12.562Z,23.00
2019-04-06T15:26:38.625Z,23.00
2019-04-06T15:31:07.684Z,23.10
2019-04-06T15:35:18.539Z,23.10
2019-04-06T15:39:42.061Z,23.30
2019-04-06T15:44:08.451Z,23.40
2019-04-06T15:48:39.928Z,23.60
2019-04-06T15:52:50.445Z,23.80
2019-04-06T15:57:08.687Z,24.20
2019-04-06T16:01:31.874Z,24.50
2019-04-06T16:05:45.780Z,24.70
2019-04-06T16:10:02.023Z,24.90
2019-04-06T16:14:13.674Z,25.10
2019-04-06T16:18:42.147Z,25.10
2019-04-06T16:23:05.415Z,25.20
2019-04-06T16:27:27.301Z,25.10
2019-04-06T16:31:42.379Z,25.10
2019-04-06T16:35:58.207Z,25.00
2019-04-06T16:40:20.295Z,24.80
2019-04-06T16:44:32.038Z,24.60
2019-04-06T16:48:43.286Z,24.30
2019-04-06T16:53:06.642Z,24.00
2019-04-06T16:57:45.706Z,23.70
2019-04-06T17:02:08.994Z,23.40
2019-04-06T17:06:30.814Z,23.00
2019-04-06T17:10:49.512Z,22.70
2019-04-06T17:15:12.734Z,22.40
2019-04-06T17:19:26.311Z,22.00
2019-04-06T17:23:48.419Z,21.70
2019-04-06T17:28:07.976Z,21.50
2019-04-06T17:32:17.592Z,21.20
2019-04-06T17:36:38.669Z,21.00
2019-04-06T17:40:54.637Z,20.70
2019-04-06T17:45:27.590Z,20.50
2019-04-06T17:49:50.983Z,20.30
2019-04-06T17:54:13.540Z,20.00
2019-04-06T17:58:33.338Z,19.80
2019-04-06T18:02:55.119Z,19.50
2019-04-06T18:07:18.984Z,19.20
2019-04-06T18:11:42.055Z,19.00
2019-04-06T18:15:46.337Z,18.70
2019-04-06T18:19:50.751Z,18.40
2019-04-06T18:23:55.295Z,18.20
2019-04-06T18:27:59.559Z,18.00
2019-04-06T18:32:09.885Z,17.90
2019-04-06T18:36:14.109Z,17.70
2019-04-06T18:40:21.710Z,17.50
2019-04-06T18:44:26.265Z,17.40
2019-04-06T18:48:30.592Z,17.20
2019-04-06T18:52:35.020Z,17.10
2019-04-06T18:56:40.093Z,16.90
2019-04-06T19:00:44.624Z,16.70
2019-04-06T19:04:48.953Z,16.60
2019-04-06T19:08:53.523Z,16.40
2019-04-06T19:12:57.829Z,16.20
2019-04-06T19:17:02.449Z,16.10
2019-04-06T19:21:07.219Z,16.00
2019-04-06T19:25:12.675Z,15.80
2019-04-06T19:29:17.209Z,15.70
2019-04-06T19:33:25.167Z,15.50
2019-04-06T19:37:28.159Z,15.40
2019-04-06T19:41:32.660Z,15.30
2019-04-06T19:45:37.194Z,15.20
2019-04-06T19:49:41.682Z,15.10
2019-04-06T19:53:46.114Z,15.00
2019-04-06T19:57:50.677Z,14.90
2019-04-06T20:01:55.526Z,14.80
2019-04-06T20:06:00.576Z,14.60
2019-04-06T20:10:06.206Z,14.50
2019-04-06T20:14:10.730Z,14.30
2019-04-06T20:18:15.211Z,14.20
2019-04-06T20:22:19.610Z,14.10
2019-04-06T20:26:23.967Z,14.00
2019-04-06T20:30:28.439Z,13.90
2019-04-06T20:34:33.299Z,13.80
2019-04-06T20:38:37.954Z,13.70
2019-04-06T20:42:42.232Z,13.60
2019-04-06T20:46:46.628Z,13.50
2019-04-06T20:50:50.981Z,13.40
2019-04-06T20:54:55.938Z,13.30
2019-04-06T20:59:01.397Z,13.20
2019-04-06T21:03:05.716Z,13.10
2019-04-06T21:07:10.146Z,12.90
2019-04-06T21:11:15.101Z,12.90
2019-04-06T21:15:21.070Z,12.80
2019-04-06T21:19:25.977Z,12.80
2019-04-06T21:23:30.686Z,12.70
2019-04-06T21:27:36.112Z,12.60
2019-04-06T21:31:40.721Z,12.50
2019-04-06T21:35:45.749Z,12.50
2019-04-06T21:39:50.271Z,12.40
2019-04-06T21:43:54.647Z,12.30
2019-04-06T21:47:59.452Z,12.30
2019-04-06T21:52:04.931Z,12.20
2019-04-06T21:56:09.809Z,12.30
2019-04-06T22:00:20.127Z,12.20
2019-04-06T22:04:26.743Z,12.20
2019-04-06T22:08:30.563Z,12.20
2019-04-06T22:12:35.034Z,12.20
2019-04-06T22:16:39.335Z,12.20
2019-04-06T22:20:43.857Z,12.10
2019-04-06T22:24:48.475Z,12.10
2019-04-06T22:28:53.494Z,12.00
2019-04-06T22:32:57.834Z,12.00
2019-04-06T22:37:02.627Z,12.00
2019-04-06T22:41:07.975Z,11.90
2019-04-06T22:45:14.174Z,11.80
2019-04-06T22:49:19.012Z,11.80
2019-04-06T22:53:23.638Z,11.60
2019-04-06T22:57:31.752Z,11.50
2019-04-06T23:01:37.819Z,11.50
2019-04-06T23:05:45.870Z,11.40
2019-04-06T23:09:50.095Z,11.30
2019-04-06T23:13:54.315Z,11.30
2019-04-06T23:17:59.093Z,11.30
2019-04-06T23:22:03.591Z,11.20
2019-04-06T23:26:07.882Z,11.20
2019-04-06T23:30:12.277Z,11.10
2019-04-06T23:34:16.419Z,11.00
2019-04-06T23:38:21.094Z,10.90
2019-04-06T23:42:26.144Z,10.90
2019-04-06T23:46:30.511Z,10.80
2019-04-06T23:50:34.731Z,10.80
2019-04-06T23:54:39.885Z,10.80
2019-04-06T23:58:44.343Z,10.90
